sensor_id;sensor_type;location;lat;lon;timestamp;P1;durP1;ratioP1;P2;durP2;ratioP2
64029;SDS011;50277;52.064;4.492;2024-01-30T00:01:17;12.27;;;8.68;;
64029;SDS011;50277;52.064;4.492;2024-01-30T00:03:42;15.23;;;8.80;;
64029;SDS011;50277;52.064;4.492;2024-01-30T00:06:08;14.82;;;8.65;;
64029;SDS011;50277;52.064;4.492;2024-01-30T00:08:33;14.63;;;8.70;;
64029;SDS011;50277;52.064;4.492;2024-01-30T00:10:59;13.95;;;8.40;;
64029;SDS011;50277;52.064;4.492;2024-01-30T00:13:24;11.63;;;7.75;;
64029;SDS011;50277;52.064;4.492;2024-01-30T00:15:49;12.80;;;8.93;;
64029;SDS011;50277;52.064;4.492;2024-01-30T00:18:15;13.18;;;8.38;;
64029;SDS011;50277;52.064;4.492;2024-01-30T00:20:40;12.68;;;8.35;;
64029;SDS011;50277;52.064;4.492;2024-01-30T00:23:05;16.63;;;8.38;;
64029;SDS011;50277;52.064;4.492;2024-01-30T00:25:31;13.57;;;8.13;;
64029;SDS011;50277;52.064;4.492;2024-01-30T00:27:58;10.25;;;7.65;;
64029;SDS011;50277;52.064;4.492;2024-01-30T00:30:23;12.07;;;7.38;;
64029;SDS011;50277;52.064;4.492;2024-01-30T00:32:49;10.18;;;7.50;;
64029;SDS011;50277;52.064;4.492;2024-01-30T00:35:14;8.85;;;7.28;;
64029;SDS011;50277;52.064;4.492;2024-01-30T00:37:39;10.65;;;7.63;;
64029;SDS011;50277;52.064;4.492;2024-01-30T00:40:05;10.70;;;7.63;;
64029;SDS011;50277;52.064;4.492;2024-01-30T00:42:31;11.35;;;7.50;;
64029;SDS011;50277;52.064;4.492;2024-01-30T00:44:56;9.40;;;6.90;;
64029;SDS011;50277;52.064;4.492;2024-01-30T00:47:22;11.88;;;7.30;;
64029;SDS011;50277;52.064;4.492;2024-01-30T00:49:47;14.15;;;8.52;;
64029;SDS011;50277;52.064;4.492;2024-01-30T00:52:12;11.00;;;7.90;;
64029;SDS011;50277;52.064;4.492;2024-01-30T00:54:38;11.32;;;7.60;;
64029;SDS011;50277;52.064;4.492;2024-01-30T00:57:03;11.05;;;8.05;;
64029;SDS011;50277;52.064;4.492;2024-01-30T00:59:28;13.07;;;8.40;;
64029;SDS011;50277;52.064;4.492;2024-01-30T01:01:54;10.95;;;7.72;;
64029;SDS011;50277;52.064;4.492;2024-01-30T01:04:19;11.43;;;7.82;;
64029;SDS011;50277;52.064;4.492;2024-01-30T01:06:46;12.32;;;7.68;;
64029;SDS011;50277;52.064;4.492;2024-01-30T01:09:11;12.77;;;8.52;;
64029;SDS011;50277;52.064;4.492;2024-01-30T01:11:37;12.85;;;8.13;;
64029;SDS011;50277;52.064;4.492;2024-01-30T01:14:03;12.75;;;8.13;;
64029;SDS011;50277;52.064;4.492;2024-01-30T01:16:28;10.65;;;7.57;;
64029;SDS011;50277;52.064;4.492;2024-01-30T01:18:54;14.45;;;8.45;;
64029;SDS011;50277;52.064;4.492;2024-01-30T01:21:19;13.80;;;7.82;;
64029;SDS011;50277;52.064;4.492;2024-01-30T01:23:44;12.98;;;7.82;;
64029;SDS011;50277;52.064;4.492;2024-01-30T01:26:10;14.60;;;7.63;;
64029;SDS011;50277;52.064;4.492;2024-01-30T01:28:35;8.32;;;7.30;;
64029;SDS011;50277;52.064;4.492;2024-01-30T01:31:01;12.23;;;7.70;;
64029;SDS011;50277;52.064;4.492;2024-01-30T01:33:30;14.40;;;8.07;;
64029;SDS011;50277;52.064;4.492;2024-01-30T01:35:57;10.45;;;7.35;;
64029;SDS011;50277;52.064;4.492;2024-01-30T01:38:23;10.93;;;7.75;;
64029;SDS011;50277;52.064;4.492;2024-01-30T01:40:48;15.63;;;7.65;;
64029;SDS011;50277;52.064;4.492;2024-01-30T01:43:13;10.32;;;7.40;;
64029;SDS011;50277;52.064;4.492;2024-01-30T01:45:39;12.13;;;7.30;;
64029;SDS011;50277;52.064;4.492;2024-01-30T01:48:04;12.02;;;7.78;;
64029;SDS011;50277;52.064;4.492;2024-01-30T01:50:30;11.80;;;7.32;;
64029;SDS011;50277;52.064;4.492;2024-01-30T01:52:55;13.05;;;7.40;;
64029;SDS011;50277;52.064;4.492;2024-01-30T01:55:21;9.93;;;6.97;;
64029;SDS011;50277;52.064;4.492;2024-01-30T01:57:48;11.40;;;7.90;;
64029;SDS011;50277;52.064;4.492;2024-01-30T02:00:14;11.23;;;7.47;;
64029;SDS011;50277;52.064;4.492;2024-01-30T02:02:39;11.60;;;8.00;;
64029;SDS011;50277;52.064;4.492;2024-01-30T02:05:05;11.10;;;7.22;;
64029;SDS011;50277;52.064;4.492;2024-01-30T02:07:30;11.35;;;7.88;;
64029;SDS011;50277;52.064;4.492;2024-01-30T02:09:56;8.20;;;6.95;;
64029;SDS011;50277;52.064;4.492;2024-01-30T02:12:21;9.00;;;7.47;;
64029;SDS011;50277;52.064;4.492;2024-01-30T02:14:47;10.77;;;8.20;;
64029;SDS011;50277;52.064;4.492;2024-01-30T02:17:13;10.32;;;7.70;;
64029;SDS011;50277;52.064;4.492;2024-01-30T02:19:39;9.60;;;7.90;;
64029;SDS011;50277;52.064;4.492;2024-01-30T02:22:07;10.90;;;7.85;;
64029;SDS011;50277;52.064;4.492;2024-01-30T02:24:33;9.07;;;7.38;;
64029;SDS011;50277;52.064;4.492;2024-01-30T02:26:58;9.93;;;7.35;;
64029;SDS011;50277;52.064;4.492;2024-01-30T02:29:23;13.35;;;7.10;;
64029;SDS011;50277;52.064;4.492;2024-01-30T02:31:49;9.60;;;7.97;;
64029;SDS011;50277;52.064;4.492;2024-01-30T02:34:14;14.15;;;7.80;;
64029;SDS011;50277;52.064;4.492;2024-01-30T02:36:43;9.43;;;7.35;;
64029;SDS011;50277;52.064;4.492;2024-01-30T02:39:08;8.82;;;7.75;;
64029;SDS011;50277;52.064;4.492;2024-01-30T02:41:34;11.68;;;7.78;;
64029;SDS011;50277;52.064;4.492;2024-01-30T02:44:00;9.07;;;7.13;;
64029;SDS011;50277;52.064;4.492;2024-01-30T02:46:25;10.15;;;7.82;;
64029;SDS011;50277;52.064;4.492;2024-01-30T02:48:50;9.43;;;7.43;;
64029;SDS011;50277;52.064;4.492;2024-01-30T02:51:16;10.07;;;7.63;;
64029;SDS011;50277;52.064;4.492;2024-01-30T02:53:41;14.25;;;8.45;;
64029;SDS011;50277;52.064;4.492;2024-01-30T02:56:07;10.40;;;6.97;;
64029;SDS011;50277;52.064;4.492;2024-01-30T02:58:35;9.95;;;7.00;;
64029;SDS011;50277;52.064;4.492;2024-01-30T03:01:00;10.55;;;6.78;;
64029;SDS011;50277;52.064;4.492;2024-01-30T03:03:26;10.10;;;7.45;;
64029;SDS011;50277;52.064;4.492;2024-01-30T03:05:51;11.27;;;7.82;;
64029;SDS011;50277;52.064;4.492;2024-01-30T03:08:16;12.23;;;6.72;;
64029;SDS011;50277;52.064;4.492;2024-01-30T03:10:42;9.52;;;7.60;;
64029;SDS011;50277;52.064;4.492;2024-01-30T03:13:07;10.77;;;7.25;;
64029;SDS011;50277;52.064;4.492;2024-01-30T03:15:32;11.82;;;7.50;;
64029;SDS011;50277;52.064;4.492;2024-01-30T03:17:58;11.38;;;6.88;;
64029;SDS011;50277;52.064;4.492;2024-01-30T03:20:23;8.68;;;6.65;;
64029;SDS011;50277;52.064;4.492;2024-01-30T03:22:49;10.80;;;7.95;;
64029;SDS011;50277;52.064;4.492;2024-01-30T03:25:14;9.20;;;6.95;;
64029;SDS011;50277;52.064;4.492;2024-01-30T03:27:39;8.20;;;6.75;;
64029;SDS011;50277;52.064;4.492;2024-01-30T03:30:05;12.48;;;7.40;;
64029;SDS011;50277;52.064;4.492;2024-01-30T03:32:31;11.65;;;7.40;;
64029;SDS011;50277;52.064;4.492;2024-01-30T03:34:56;9.20;;;6.85;;
64029;SDS011;50277;52.064;4.492;2024-01-30T03:37:23;9.80;;;6.97;;
64029;SDS011;50277;52.064;4.492;2024-01-30T03:39:48;10.98;;;7.72;;
64029;SDS011;50277;52.064;4.492;2024-01-30T03:42:13;7.70;;;7.00;;
64029;SDS011;50277;52.064;4.492;2024-01-30T03:44:39;9.88;;;7.15;;
64029;SDS011;50277;52.064;4.492;2024-01-30T03:47:04;8.43;;;6.72;;
64029;SDS011;50277;52.064;4.492;2024-01-30T03:49:29;10.48;;;7.45;;
64029;SDS011;50277;52.064;4.492;2024-01-30T03:51:55;11.25;;;7.25;;
64029;SDS011;50277;52.064;4.492;2024-01-30T03:54:20;9.18;;;7.30;;
64029;SDS011;50277;52.064;4.492;2024-01-30T03:56:45;9.02;;;7.32;;
64029;SDS011;50277;52.064;4.492;2024-01-30T03:59:11;13.20;;;7.28;;
64029;SDS011;50277;52.064;4.492;2024-01-30T04:01:36;11.50;;;7.22;;
64029;SDS011;50277;52.064;4.492;2024-01-30T04:04:02;12.15;;;7.43;;
64029;SDS011;50277;52.064;4.492;2024-01-30T04:06:27;11.68;;;7.32;;
64029;SDS011;50277;52.064;4.492;2024-01-30T04:08:52;16.13;;;7.90;;
64029;SDS011;50277;52.064;4.492;2024-01-30T04:11:18;7.88;;;6.90;;
64029;SDS011;50277;52.064;4.492;2024-01-30T04:13:44;11.55;;;7.53;;
64029;SDS011;50277;52.064;4.492;2024-01-30T04:16:18;12.50;;;7.13;;
64029;SDS011;50277;52.064;4.492;2024-01-30T04:18:44;10.98;;;7.05;;
64029;SDS011;50277;52.064;4.492;2024-01-30T04:21:10;10.25;;;7.22;;
64029;SDS011;50277;52.064;4.492;2024-01-30T04:23:35;11.35;;;6.80;;
64029;SDS011;50277;52.064;4.492;2024-01-30T04:26:00;9.40;;;6.50;;
64029;SDS011;50277;52.064;4.492;2024-01-30T04:28:26;14.02;;;7.03;;
64029;SDS011;50277;52.064;4.492;2024-01-30T04:30:51;9.70;;;6.97;;
64029;SDS011;50277;52.064;4.492;2024-01-30T04:33:16;11.77;;;6.72;;
64029;SDS011;50277;52.064;4.492;2024-01-30T04:35:43;11.25;;;7.57;;
64029;SDS011;50277;52.064;4.492;2024-01-30T04:38:08;10.65;;;7.80;;
64029;SDS011;50277;52.064;4.492;2024-01-30T04:40:33;9.00;;;6.97;;
64029;SDS011;50277;52.064;4.492;2024-01-30T04:42:59;9.73;;;7.00;;
64029;SDS011;50277;52.064;4.492;2024-01-30T04:45:24;10.95;;;6.97;;
64029;SDS011;50277;52.064;4.492;2024-01-30T04:47:49;10.15;;;7.22;;
64029;SDS011;50277;52.064;4.492;2024-01-30T04:50:15;10.50;;;7.50;;
64029;SDS011;50277;52.064;4.492;2024-01-30T04:52:40;10.35;;;7.07;;
64029;SDS011;50277;52.064;4.492;2024-01-30T04:55:06;9.00;;;6.90;;
64029;SDS011;50277;52.064;4.492;2024-01-30T04:57:31;9.15;;;6.93;;
64029;SDS011;50277;52.064;4.492;2024-01-30T04:59:58;9.40;;;7.00;;
64029;SDS011;50277;52.064;4.492;2024-01-30T05:02:24;8.95;;;6.82;;
64029;SDS011;50277;52.064;4.492;2024-01-30T05:04:49;7.72;;;6.70;;
64029;SDS011;50277;52.064;4.492;2024-01-30T05:07:14;14.23;;;7.20;;
64029;SDS011;50277;52.064;4.492;2024-01-30T05:09:40;10.60;;;7.15;;
64029;SDS011;50277;52.064;4.492;2024-01-30T05:12:05;10.65;;;7.15;;
64029;SDS011;50277;52.064;4.492;2024-01-30T05:14:31;8.90;;;7.05;;
64029;SDS011;50277;52.064;4.492;2024-01-30T05:16:57;11.35;;;6.63;;
64029;SDS011;50277;52.064;4.492;2024-01-30T05:19:22;10.70;;;6.13;;
64029;SDS011;50277;52.064;4.492;2024-01-30T05:21:48;14.23;;;7.03;;
64029;SDS011;50277;52.064;4.492;2024-01-30T05:24:14;10.68;;;7.25;;
64029;SDS011;50277;52.064;4.492;2024-01-30T05:26:39;9.07;;;6.55;;
64029;SDS011;50277;52.064;4.492;2024-01-30T05:29:05;7.82;;;6.22;;
64029;SDS011;50277;52.064;4.492;2024-01-30T05:31:31;9.52;;;6.47;;
64029;SDS011;50277;52.064;4.492;2024-01-30T05:33:56;11.27;;;7.15;;
64029;SDS011;50277;52.064;4.492;2024-01-30T05:36:21;8.30;;;6.82;;
64029;SDS011;50277;52.064;4.492;2024-01-30T05:38:47;11.82;;;7.07;;
64029;SDS011;50277;52.064;4.492;2024-01-30T05:41:12;9.15;;;6.45;;
64029;SDS011;50277;52.064;4.492;2024-01-30T05:43:38;13.77;;;7.35;;
64029;SDS011;50277;52.064;4.492;2024-01-30T05:46:03;12.32;;;6.70;;
64029;SDS011;50277;52.064;4.492;2024-01-30T05:48:28;11.10;;;6.80;;
64029;SDS011;50277;52.064;4.492;2024-01-30T05:50:54;12.60;;;7.82;;
64029;SDS011;50277;52.064;4.492;2024-01-30T05:53:19;11.50;;;7.25;;
64029;SDS011;50277;52.064;4.492;2024-01-30T05:55:45;11.30;;;6.50;;
64029;SDS011;50277;52.064;4.492;2024-01-30T05:58:10;11.48;;;7.35;;
64029;SDS011;50277;52.064;4.492;2024-01-30T06:00:36;11.23;;;6.95;;
64029;SDS011;50277;52.064;4.492;2024-01-30T06:03:01;21.35;;;9.48;;
64029;SDS011;50277;52.064;4.492;2024-01-30T06:05:27;16.08;;;7.45;;
64029;SDS011;50277;52.064;4.492;2024-01-30T06:07:52;12.10;;;7.40;;
64029;SDS011;50277;52.064;4.492;2024-01-30T06:10:18;11.35;;;6.75;;
64029;SDS011;50277;52.064;4.492;2024-01-30T06:12:43;7.82;;;6.68;;
64029;SDS011;50277;52.064;4.492;2024-01-30T06:15:09;14.35;;;7.80;;
64029;SDS011;50277;52.064;4.492;2024-01-30T06:17:35;11.75;;;6.95;;
64029;SDS011;50277;52.064;4.492;2024-01-30T06:20:00;11.07;;;7.13;;
64029;SDS011;50277;52.064;4.492;2024-01-30T06:22:25;10.70;;;7.38;;
64029;SDS011;50277;52.064;4.492;2024-01-30T06:24:51;13.25;;;6.75;;
64029;SDS011;50277;52.064;4.492;2024-01-30T06:27:16;12.05;;;7.60;;
64029;SDS011;50277;52.064;4.492;2024-01-30T06:29:42;7.15;;;6.22;;
64029;SDS011;50277;52.064;4.492;2024-01-30T06:32:08;12.48;;;7.40;;
64029;SDS011;50277;52.064;4.492;2024-01-30T06:34:33;11.63;;;7.03;;
64029;SDS011;50277;52.064;4.492;2024-01-30T06:36:59;11.02;;;7.30;;
64029;SDS011;50277;52.064;4.492;2024-01-30T06:39:24;11.48;;;7.10;;
64029;SDS011;50277;52.064;4.492;2024-01-30T06:41:50;13.57;;;6.97;;
64029;SDS011;50277;52.064;4.492;2024-01-30T06:44:15;10.10;;;7.10;;
64029;SDS011;50277;52.064;4.492;2024-01-30T06:46:40;13.75;;;6.93;;
64029;SDS011;50277;52.064;4.492;2024-01-30T06:49:06;13.40;;;7.57;;
64029;SDS011;50277;52.064;4.492;2024-01-30T06:51:31;11.75;;;6.65;;
64029;SDS011;50277;52.064;4.492;2024-01-30T06:53:57;12.70;;;7.80;;
64029;SDS011;50277;52.064;4.492;2024-01-30T06:56:22;13.43;;;7.57;;
64029;SDS011;50277;52.064;4.492;2024-01-30T06:58:50;11.75;;;7.03;;
64029;SDS011;50277;52.064;4.492;2024-01-30T07:03:42;12.52;;;6.97;;
64029;SDS011;50277;52.064;4.492;2024-01-30T07:06:07;14.80;;;6.97;;
64029;SDS011;50277;52.064;4.492;2024-01-30T07:08:33;10.40;;;6.43;;
64029;SDS011;50277;52.064;4.492;2024-01-30T07:10:59;12.52;;;7.03;;
64029;SDS011;50277;52.064;4.492;2024-01-30T07:13:24;13.50;;;6.93;;
64029;SDS011;50277;52.064;4.492;2024-01-30T07:15:49;12.65;;;6.80;;
64029;SDS011;50277;52.064;4.492;2024-01-30T07:18:15;17.60;;;6.60;;
64029;SDS011;50277;52.064;4.492;2024-01-30T07:20:40;13.05;;;6.63;;
64029;SDS011;50277;52.064;4.492;2024-01-30T07:23:11;11.73;;;7.25;;
64029;SDS011;50277;52.064;4.492;2024-01-30T07:25:41;8.07;;;6.55;;
64029;SDS011;50277;52.064;4.492;2024-01-30T07:28:10;10.70;;;6.35;;
64029;SDS011;50277;52.064;4.492;2024-01-30T07:30:36;12.43;;;6.75;;
64029;SDS011;50277;52.064;4.492;2024-01-30T07:33:01;16.60;;;7.43;;
64029;SDS011;50277;52.064;4.492;2024-01-30T07:35:26;15.00;;;7.65;;
64029;SDS011;50277;52.064;4.492;2024-01-30T07:37:52;11.32;;;6.85;;
64029;SDS011;50277;52.064;4.492;2024-01-30T07:40:17;13.40;;;6.82;;
64029;SDS011;50277;52.064;4.492;2024-01-30T07:42:43;12.45;;;7.13;;
64029;SDS011;50277;52.064;4.492;2024-01-30T07:45:08;10.65;;;6.50;;
64029;SDS011;50277;52.064;4.492;2024-01-30T07:47:34;12.98;;;7.55;;
64029;SDS011;50277;52.064;4.492;2024-01-30T07:49:59;22.23;;;7.63;;
64029;SDS011;50277;52.064;4.492;2024-01-30T07:52:24;10.45;;;6.88;;
64029;SDS011;50277;52.064;4.492;2024-01-30T07:54:50;13.75;;;6.65;;
64029;SDS011;50277;52.064;4.492;2024-01-30T07:57:16;14.35;;;6.95;;
64029;SDS011;50277;52.064;4.492;2024-01-30T07:59:42;12.65;;;7.22;;
64029;SDS011;50277;52.064;4.492;2024-01-30T08:02:09;14.65;;;6.90;;
64029;SDS011;50277;52.064;4.492;2024-01-30T08:04:34;13.23;;;7.55;;
64029;SDS011;50277;52.064;4.492;2024-01-30T08:06:59;11.90;;;7.00;;
64029;SDS011;50277;52.064;4.492;2024-01-30T08:09:25;24.83;;;7.75;;
64029;SDS011;50277;52.064;4.492;2024-01-30T08:11:50;16.33;;;7.75;;
64029;SDS011;50277;52.064;4.492;2024-01-30T08:14:15;9.57;;;7.63;;
64029;SDS011;50277;52.064;4.492;2024-01-30T08:16:42;16.92;;;7.75;;
64029;SDS011;50277;52.064;4.492;2024-01-30T08:19:07;20.38;;;7.90;;
64029;SDS011;50277;52.064;4.492;2024-01-30T08:21:32;14.23;;;8.32;;
64029;SDS011;50277;52.064;4.492;2024-01-30T08:26:27;19.25;;;8.70;;
64029;SDS011;50277;52.064;4.492;2024-01-30T08:28:52;16.75;;;8.20;;
64029;SDS011;50277;52.064;4.492;2024-01-30T08:31:18;12.70;;;7.63;;
64029;SDS011;50277;52.064;4.492;2024-01-30T08:33:44;15.88;;;8.93;;
64029;SDS011;50277;52.064;4.492;2024-01-30T08:36:09;12.23;;;7.97;;
64029;SDS011;50277;52.064;4.492;2024-01-30T08:38:34;16.60;;;8.45;;
64029;SDS011;50277;52.064;4.492;2024-01-30T08:40:59;15.82;;;8.43;;
64029;SDS011;50277;52.064;4.492;2024-01-30T10:10:18;9.65;;;2.58;;
64029;SDS011;50277;52.064;4.492;2024-01-30T10:12:43;9.52;;;2.97;;
64029;SDS011;50277;52.064;4.492;2024-01-30T10:15:08;7.15;;;2.10;;
64029;SDS011;50277;52.064;4.492;2024-01-30T10:17:34;11.32;;;2.35;;
64029;SDS011;50277;52.064;4.492;2024-01-30T10:20:04;9.85;;;2.17;;
64029;SDS011;50277;52.064;4.492;2024-01-30T10:22:30;6.00;;;1.67;;
64029;SDS011;50277;52.064;4.492;2024-01-30T10:24:55;6.82;;;2.00;;
64029;SDS011;50277;52.064;4.492;2024-01-30T10:27:27;8.48;;;2.10;;
64029;SDS011;50277;52.064;4.492;2024-01-30T10:29:52;4.50;;;1.73;;
64029;SDS011;50277;52.064;4.492;2024-01-30T10:32:18;6.28;;;1.52;;
64029;SDS011;50277;52.064;4.492;2024-01-30T10:34:44;10.35;;;1.88;;
64029;SDS011;50277;52.064;4.492;2024-01-30T10:37:10;4.95;;;1.55;;
64029;SDS011;50277;52.064;4.492;2024-01-30T10:39:42;9.65;;;2.20;;
64029;SDS011;50277;52.064;4.492;2024-01-30T10:42:12;10.13;;;1.75;;
64029;SDS011;50277;52.064;4.492;2024-01-30T10:49:52;7.13;;;1.85;;
64029;SDS011;50277;52.064;4.492;2024-01-30T10:52:19;8.50;;;1.38;;
64029;SDS011;50277;52.064;4.492;2024-01-30T10:54:45;3.45;;;1.20;;
64029;SDS011;50277;52.064;4.492;2024-01-30T10:57:11;14.98;;;2.92;;
64029;SDS011;50277;52.064;4.492;2024-01-30T10:59:37;5.28;;;1.30;;
64029;SDS011;50277;52.064;4.492;2024-01-30T11:02:03;9.32;;;1.98;;
64029;SDS011;50277;52.064;4.492;2024-01-30T11:04:35;14.57;;;2.47;;
64029;SDS011;50277;52.064;4.492;2024-01-30T11:07:01;7.80;;;1.77;;
64029;SDS011;50277;52.064;4.492;2024-01-30T11:09:29;5.13;;;1.77;;
64029;SDS011;50277;52.064;4.492;2024-01-30T11:11:56;10.98;;;2.05;;
64029;SDS011;50277;52.064;4.492;2024-01-30T11:14:25;8.77;;;1.75;;
64029;SDS011;50277;52.064;4.492;2024-01-30T11:16:51;8.05;;;2.85;;
64029;SDS011;50277;52.064;4.492;2024-01-30T11:19:23;10.73;;;1.83;;
64029;SDS011;50277;52.064;4.492;2024-01-30T11:21:55;10.48;;;2.10;;
64029;SDS011;50277;52.064;4.492;2024-01-30T11:24:21;12.15;;;2.53;;
64029;SDS011;50277;52.064;4.492;2024-01-30T11:26:48;5.95;;;1.70;;
64029;SDS011;50277;52.064;4.492;2024-01-30T11:29:27;10.35;;;1.95;;
64029;SDS011;50277;52.064;4.492;2024-01-30T11:31:53;10.15;;;1.92;;
64029;SDS011;50277;52.064;4.492;2024-01-30T11:34:23;10.00;;;2.10;;
64029;SDS011;50277;52.064;4.492;2024-01-30T11:36:52;12.13;;;1.83;;
64029;SDS011;50277;52.064;4.492;2024-01-30T11:39:24;5.15;;;1.60;;
64029;SDS011;50277;52.064;4.492;2024-01-30T11:41:53;8.13;;;2.10;;
64029;SDS011;50277;52.064;4.492;2024-01-30T11:44:19;10.05;;;2.58;;
64029;SDS011;50277;52.064;4.492;2024-01-30T11:46:46;9.02;;;2.03;;
64029;SDS011;50277;52.064;4.492;2024-01-30T11:49:12;10.18;;;2.05;;
64029;SDS011;50277;52.064;4.492;2024-01-30T11:51:37;5.18;;;1.63;;
64029;SDS011;50277;52.064;4.492;2024-01-30T11:54:03;14.18;;;2.67;;
64029;SDS011;50277;52.064;4.492;2024-01-30T11:56:28;13.02;;;2.15;;
64029;SDS011;50277;52.064;4.492;2024-01-30T11:58:53;4.25;;;1.25;;
64029;SDS011;50277;52.064;4.492;2024-01-30T12:01:19;9.90;;;2.25;;
64029;SDS011;50277;52.064;4.492;2024-01-30T12:03:51;5.75;;;2.05;;
64029;SDS011;50277;52.064;4.492;2024-01-30T12:06:17;10.85;;;1.98;;
64029;SDS011;50277;52.064;4.492;2024-01-30T12:08:42;6.97;;;1.90;;
64029;SDS011;50277;52.064;4.492;2024-01-30T12:11:08;8.20;;;2.05;;
64029;SDS011;50277;52.064;4.492;2024-01-30T12:13:33;8.02;;;2.00;;
64029;SDS011;50277;52.064;4.492;2024-01-30T12:16:00;7.50;;;2.10;;
64029;SDS011;50277;52.064;4.492;2024-01-30T12:18:26;6.18;;;1.70;;
64029;SDS011;50277;52.064;4.492;2024-01-30T12:21:00;11.25;;;1.90;;
64029;SDS011;50277;52.064;4.492;2024-01-30T12:23:26;8.27;;;1.98;;
64029;SDS011;50277;52.064;4.492;2024-01-30T12:25:52;7.45;;;1.73;;
64029;SDS011;50277;52.064;4.492;2024-01-30T12:28:17;9.38;;;2.10;;
64029;SDS011;50277;52.064;4.492;2024-01-30T12:30:44;8.20;;;2.17;;
64029;SDS011;50277;52.064;4.492;2024-01-30T12:33:10;11.73;;;2.10;;
64029;SDS011;50277;52.064;4.492;2024-01-30T12:35:45;5.47;;;2.13;;
64029;SDS011;50277;52.064;4.492;2024-01-30T12:38:10;13.93;;;3.05;;
64029;SDS011;50277;52.064;4.492;2024-01-30T12:40:36;6.32;;;1.80;;
64029;SDS011;50277;52.064;4.492;2024-01-30T12:43:01;11.15;;;2.50;;
64029;SDS011;50277;52.064;4.492;2024-01-30T12:45:27;10.13;;;2.03;;
64029;SDS011;50277;52.064;4.492;2024-01-30T12:47:52;15.60;;;2.95;;
64029;SDS011;50277;52.064;4.492;2024-01-30T12:50:18;6.18;;;1.70;;
64029;SDS011;50277;52.064;4.492;2024-01-30T12:52:43;8.73;;;2.35;;
64029;SDS011;50277;52.064;4.492;2024-01-30T12:55:09;7.60;;;2.30;;
64029;SDS011;50277;52.064;4.492;2024-01-30T12:57:34;9.50;;;2.35;;
64029;SDS011;50277;52.064;4.492;2024-01-30T12:59:59;9.57;;;2.63;;
64029;SDS011;50277;52.064;4.492;2024-01-30T13:02:24;5.25;;;2.15;;
64029;SDS011;50277;52.064;4.492;2024-01-30T13:04:51;7.63;;;2.05;;
64029;SDS011;50277;52.064;4.492;2024-01-30T13:07:17;7.32;;;2.38;;
64029;SDS011;50277;52.064;4.492;2024-01-30T13:09:42;8.43;;;1.88;;
64029;SDS011;50277;52.064;4.492;2024-01-30T13:12:07;9.95;;;2.10;;
64029;SDS011;50277;52.064;4.492;2024-01-30T13:14:33;10.55;;;2.13;;
64029;SDS011;50277;52.064;4.492;2024-01-30T13:16:58;7.78;;;1.92;;
64029;SDS011;50277;52.064;4.492;2024-01-30T13:19:24;5.53;;;1.80;;
64029;SDS011;50277;52.064;4.492;2024-01-30T13:21:49;6.10;;;2.10;;
64029;SDS011;50277;52.064;4.492;2024-01-30T13:24:14;4.30;;;1.58;;
64029;SDS011;50277;52.064;4.492;2024-01-30T13:26:40;7.57;;;2.22;;
64029;SDS011;50277;52.064;4.492;2024-01-30T13:29:05;5.13;;;2.13;;
64029;SDS011;50277;52.064;4.492;2024-01-30T13:31:30;3.10;;;1.77;;
64029;SDS011;50277;52.064;4.492;2024-01-30T13:33:56;5.13;;;2.05;;
64029;SDS011;50277;52.064;4.492;2024-01-30T13:36:21;4.38;;;2.35;;
64029;SDS011;50277;52.064;4.492;2024-01-30T13:38:47;4.63;;;2.28;;
64029;SDS011;50277;52.064;4.492;2024-01-30T13:41:12;7.75;;;2.72;;
64029;SDS011;50277;52.064;4.492;2024-01-30T13:43:37;5.78;;;2.72;;
64029;SDS011;50277;52.064;4.492;2024-01-30T13:46:03;7.03;;;3.15;;
64029;SDS011;50277;52.064;4.492;2024-01-30T13:48:28;5.35;;;3.38;;
64029;SDS011;50277;52.064;4.492;2024-01-30T13:50:54;12.13;;;4.50;;
64029;SDS011;50277;52.064;4.492;2024-01-30T13:53:20;6.07;;;4.07;;
64029;SDS011;50277;52.064;4.492;2024-01-30T13:55:46;6.70;;;4.43;;
64029;SDS011;50277;52.064;4.492;2024-01-30T13:58:12;7.32;;;5.28;;
64029;SDS011;50277;52.064;4.492;2024-01-30T14:00:37;9.50;;;4.78;;
64029;SDS011;50277;52.064;4.492;2024-01-30T14:03:03;9.52;;;4.72;;
64029;SDS011;50277;52.064;4.492;2024-01-30T14:05:28;10.60;;;5.32;;
64029;SDS011;50277;52.064;4.492;2024-01-30T14:07:54;6.50;;;4.68;;
64029;SDS011;50277;52.064;4.492;2024-01-30T14:10:19;6.68;;;4.80;;
64029;SDS011;50277;52.064;4.492;2024-01-30T14:12:45;10.05;;;4.78;;
64029;SDS011;50277;52.064;4.492;2024-01-30T14:15:11;9.05;;;4.25;;
64029;SDS011;50277;52.064;4.492;2024-01-30T14:17:38;7.85;;;3.85;;
64029;SDS011;50277;52.064;4.492;2024-01-30T14:20:03;5.25;;;3.72;;
64029;SDS011;50277;52.064;4.492;2024-01-30T14:22:29;10.73;;;3.50;;
64029;SDS011;50277;52.064;4.492;2024-01-30T14:24:55;4.95;;;3.30;;
64029;SDS011;50277;52.064;4.492;2024-01-30T14:27:21;5.88;;;2.83;;
64029;SDS011;50277;52.064;4.492;2024-01-30T14:29:46;4.38;;;2.60;;
64029;SDS011;50277;52.064;4.492;2024-01-30T14:32:12;3.90;;;2.70;;
64029;SDS011;50277;52.064;4.492;2024-01-30T14:34:37;4.35;;;2.33;;
64029;SDS011;50277;52.064;4.492;2024-01-30T14:37:04;3.47;;;2.58;;
64029;SDS011;50277;52.064;4.492;2024-01-30T14:39:29;6.72;;;2.80;;
64029;SDS011;50277;52.064;4.492;2024-01-30T14:41:54;5.32;;;2.60;;
64029;SDS011;50277;52.064;4.492;2024-01-30T14:44:20;3.85;;;2.50;;
64029;SDS011;50277;52.064;4.492;2024-01-30T14:46:45;5.95;;;2.75;;
64029;SDS011;50277;52.064;4.492;2024-01-30T14:49:11;4.47;;;2.65;;
64029;SDS011;50277;52.064;4.492;2024-01-30T14:51:36;4.35;;;3.13;;
64029;SDS011;50277;52.064;4.492;2024-01-30T14:54:02;4.50;;;2.90;;
64029;SDS011;50277;52.064;4.492;2024-01-30T14:56:28;4.88;;;3.13;;
64029;SDS011;50277;52.064;4.492;2024-01-30T14:58:53;6.43;;;3.17;;
64029;SDS011;50277;52.064;4.492;2024-01-30T15:01:19;3.53;;;3.20;;
64029;SDS011;50277;52.064;4.492;2024-01-30T15:03:44;4.00;;;3.55;;
64029;SDS011;50277;52.064;4.492;2024-01-30T15:06:12;5.88;;;3.05;;
64029;SDS011;50277;52.064;4.492;2024-01-30T15:08:37;5.70;;;3.58;;
64029;SDS011;50277;52.064;4.492;2024-01-30T15:11:03;4.00;;;3.40;;
64029;SDS011;50277;52.064;4.492;2024-01-30T15:13:29;7.30;;;3.92;;
64029;SDS011;50277;52.064;4.492;2024-01-30T15:15:54;7.07;;;3.90;;
64029;SDS011;50277;52.064;4.492;2024-01-30T15:18:20;7.05;;;3.90;;
64029;SDS011;50277;52.064;4.492;2024-01-30T15:20:45;4.65;;;3.60;;
64029;SDS011;50277;52.064;4.492;2024-01-30T15:23:10;12.10;;;3.85;;
64029;SDS011;50277;52.064;4.492;2024-01-30T15:25:36;11.00;;;4.35;;
64029;SDS011;50277;52.064;4.492;2024-01-30T15:28:01;11.65;;;3.90;;
64029;SDS011;50277;52.064;4.492;2024-01-30T15:30:27;11.35;;;3.40;;
64029;SDS011;50277;52.064;4.492;2024-01-30T15:32:52;6.97;;;3.63;;
64029;SDS011;50277;52.064;4.492;2024-01-30T15:35:18;9.15;;;3.40;;
64029;SDS011;50277;52.064;4.492;2024-01-30T15:37:43;7.63;;;4.05;;
64029;SDS011;50277;52.064;4.492;2024-01-30T15:40:09;8.07;;;3.53;;
64029;SDS011;50277;52.064;4.492;2024-01-30T15:42:36;8.15;;;3.63;;
64029;SDS011;50277;52.064;4.492;2024-01-30T15:45:01;3.63;;;2.90;;
64029;SDS011;50277;52.064;4.492;2024-01-30T15:47:26;9.60;;;3.90;;
64029;SDS011;50277;52.064;4.492;2024-01-30T15:49:52;7.95;;;3.92;;
64029;SDS011;50277;52.064;4.492;2024-01-30T15:52:17;7.22;;;4.15;;
64029;SDS011;50277;52.064;4.492;2024-01-30T15:54:43;9.45;;;4.10;;
64029;SDS011;50277;52.064;4.492;2024-01-30T15:57:09;6.57;;;3.40;;
64029;SDS011;50277;52.064;4.492;2024-01-30T15:59:34;4.97;;;3.03;;
64029;SDS011;50277;52.064;4.492;2024-01-30T16:01:59;7.93;;;3.05;;
64029;SDS011;50277;52.064;4.492;2024-01-30T16:04:25;5.32;;;3.30;;
64029;SDS011;50277;52.064;4.492;2024-01-30T16:06:50;16.00;;;3.30;;
64029;SDS011;50277;52.064;4.492;2024-01-30T16:09:16;9.48;;;3.22;;